Terminal Aerodrome Forecast
Issued by NWS

Home | Current Version | Previous Version | Text Only | Print | Product List | Glossary On
Versions: 1 2 3 4 5 6 7 8 9 10 11 12
781
FTUS46 KSTO 181135
TAFSMF
TAF
KSMF 181135Z 1812/1912 VRB04KT P6SM FEW250
     FM190000 18007KT P6SM FEW250=

USA.gov is the U.S. government's official web portal to all federal, state and local government web resources and services.